Time;durP1;ratioP1;P1;durP2;ratioP2;P2;SDS_P1;SDS_P2;PMS_P1;PMS_P2;Temp;Humidity;BMP_temperature;BMP_pressure;BME280_temperature;BME280_humidity;BME280_pressure;Samples;Min_cycle;Max_cycle;Signal;HPM_P1;HPM_P2
2021/05/22 00:00:54;;;;;;;5.90;4.68;;;14.60;63.40;;;;;;5155829;27;20152;-74
2021/05/22 00:03:19;;;;;;;5.93;3.85;;;14.50;63.60;;;;;;5156367;27;20110;-74
2021/05/22 00:05:45;;;;;;;6.20;4.20;;;14.50;63.40;;;;;;5156058;27;20057;-74
2021/05/22 00:08:11;;;;;;;8.25;4.15;;;14.50;63.20;;;;;;5155760;27;20487;-74
2021/05/22 00:10:37;;;;;;;6.03;4.00;;;14.50;63.10;;;;;;5155686;27;20561;-74
2021/05/22 00:13:03;;;;;;;5.53;4.32;;;14.50;62.90;;;;;;5156177;27;20023;-74
2021/05/22 00:15:29;;;;;;;6.50;4.03;;;14.40;62.70;;;;;;5155626;27;20083;-74
2021/05/22 00:17:55;;;;;;;6.10;3.88;;;14.40;62.60;;;;;;5155580;27;20472;-74
2021/05/22 00:20:20;;;;;;;6.28;4.35;;;14.40;62.60;;;;;;5155825;27;20026;-74
2021/05/22 00:22:46;;;;;;;7.50;5.80;;;14.40;62.60;;;;;;5155134;27;20456;-74
2021/05/22 00:25:14;;;;;;;11.50;7.90;;;14.40;62.80;;;;;;5155370;27;20033;-73
2021/05/22 00:27:39;;;;;;;13.25;8.63;;;14.40;63.30;;;;;;5155453;27;20461;-74
2021/05/22 00:30:07;;;;;;;11.25;6.70;;;14.30;63.50;;;;;;5155382;27;20023;-74
2021/05/22 00:32:33;;;;;;;12.25;7.97;;;14.30;63.70;;;;;;5154722;27;20026;-74
2021/05/22 00:34:58;;;;;;;16.83;10.30;;;14.20;63.70;;;;;;5155477;27;20022;-74
2021/05/22 00:37:24;;;;;;;27.90;17.70;;;14.20;63.70;;;;;;5155273;27;20368;-73
2021/05/22 00:39:50;;;;;;;33.45;17.10;;;14.10;63.80;;;;;;5155853;27;20023;-73
2021/05/22 00:42:16;;;;;;;14.40;10.55;;;14.10;64.60;;;;;;5155304;27;20053;-74
2021/05/22 00:45:05;;;;;;;20.73;14.15;;;14.00;64.00;;;;;;5154902;27;20019;-73
2021/05/22 00:47:30;;;;;;;26.65;16.45;;;13.80;64.50;;;;;;5155183;27;20468;-73
2021/05/22 00:49:56;;;;;;;28.02;15.05;;;13.70;64.70;;;;;;5155890;27;20037;-73
2021/05/22 00:52:23;;;;;;;23.48;13.10;;;13.60;65.40;;;;;;5155256;27;20031;-73
2021/05/22 00:54:49;;;;;;;20.70;11.63;;;13.50;65.90;;;;;;5155157;27;20038;-74
2021/05/22 00:57:17;;;;;;;17.67;11.25;;;13.40;66.20;;;;;;5155225;27;20033;-74
2021/05/22 00:59:43;;;;;;;14.30;9.60;;;13.40;66.70;;;;;;5155139;27;20110;-73
2021/05/22 01:02:11;;;;;;;15.65;9.65;;;13.30;66.90;;;;;;5155048;27;20033;-74
2021/05/22 01:04:37;;;;;;;14.30;9.10;;;13.20;67.20;;;;;;5137326;27;20346;-73
2021/05/22 01:07:03;;;;;;;16.20;9.73;;;13.10;67.40;;;;;;5153581;27;20057;-73
2021/05/22 01:09:31;;;;;;;13.55;8.98;;;13.00;67.70;;;;;;5155039;27;20101;-74
2021/05/22 01:12:00;;;;;;;12.63;8.85;;;12.90;67.90;;;;;;5155219;27;20031;-74
2021/05/22 01:14:38;;;;;;;14.85;9.25;;;12.90;68.10;;;;;;5154980;27;20038;-74
2021/05/22 01:17:04;;;;;;;10.10;8.30;;;12.90;68.50;;;;;;5136410;27;20031;-74
2021/05/22 01:19:52;;;;;;;12.13;8.15;;;12.80;68.30;;;;;;5154944;27;20058;-73
2021/05/22 01:22:18;;;;;;;16.88;8.63;;;12.80;68.50;;;;;;5154560;27;20064;-74
2021/05/22 01:24:49;;;;;;;11.73;8.75;;;12.70;68.30;;;;;;5155145;27;20050;-74
2021/05/22 01:27:16;;;;;;;12.50;8.50;;;12.70;68.60;;;;;;5136212;27;20022;-73
2021/05/22 01:29:43;;;;;;;11.40;8.80;;;12.60;68.50;;;;;;5154862;27;20027;-73
2021/05/22 01:32:09;;;;;;;11.77;8.70;;;12.60;68.70;;;;;;5154954;27;20027;-73
2021/05/22 01:34:36;;;;;;;12.38;8.38;;;12.60;68.90;;;;;;5155104;27;20498;-73
2021/05/22 01:37:02;;;;;;;12.93;9.38;;;12.60;69.10;;;;;;5154869;27;20067;-74
2021/05/22 01:39:28;;;;;;;10.82;8.27;;;12.60;69.10;;;;;;5154701;27;20025;-73
2021/05/22 01:41:54;;;;;;;15.80;8.70;;;12.50;69.00;;;;;;5155254;27;20042;-74
2021/05/22 01:44:21;;;;;;;13.38;8.82;;;12.50;69.10;;;;;;5154744;27;20030;-74
2021/05/22 01:46:50;;;;;;;11.68;7.93;;;12.50;69.30;;;;;;5158412;27;20019;-73
2021/05/22 01:49:19;;;;;;;12.32;8.10;;;12.50;69.10;;;;;;5158909;27;20027;-74
2021/05/22 01:51:46;;;;;;;14.32;8.05;;;12.60;69.00;;;;;;5158218;27;20075;-74
2021/05/22 01:54:13;;;;;;;10.35;7.30;;;12.60;68.80;;;;;;5158248;27;20030;-74
2021/05/22 01:56:39;;;;;;;7.65;6.13;;;12.60;68.50;;;;;;5158733;27;20027;-73
2021/05/22 01:59:05;;;;;;;7.00;5.40;;;12.70;68.20;;;;;;5139757;27;20404;-74
2021/05/22 02:01:32;;;;;;;6.65;4.93;;;12.70;67.60;;;;;;5158173;27;20026;-73
2021/05/22 02:04:07;;;;;;;5.93;4.18;;;12.70;66.90;;;;;;5158020;27;20106;-73
2021/05/22 02:06:42;;;;;;;8.88;6.75;;;12.80;66.40;;;;;;5157768;27;20025;-73
2021/05/22 02:09:08;;;;;;;8.00;5.20;;;12.80;66.50;;;;;;5158176;27;20030;-73
2021/05/22 02:11:40;;;;;;;8.50;6.10;;;12.80;66.20;;;;;;5157839;27;20034;-73
2021/05/22 02:14:08;;;;;;;7.72;5.15;;;12.80;66.10;;;;;;5157868;27;20039;-73
2021/05/22 02:16:38;;;;;;;4.78;4.03;;;12.90;65.90;;;;;;5157789;27;20484;-73
2021/05/22 02:19:08;;;;;;;4.93;4.32;;;12.90;65.30;;;;;;5157799;27;20517;-73
2021/05/22 02:21:37;;;;;;;6.78;4.07;;;12.90;64.90;;;;;;5157954;27;20146;-73
2021/05/22 02:24:03;;;;;;;5.45;4.38;;;13.00;64.60;;;;;;5157284;27;20026;-73
2021/05/22 02:26:29;;;;;;;6.45;4.78;;;13.00;64.30;;;;;;5157737;27;20030;-73
2021/05/22 02:28:57;;;;;;;7.88;5.65;;;13.10;64.30;;;;;;5157374;27;20026;-73
2021/05/22 02:31:31;;;;;;;7.28;5.57;;;13.10;64.40;;;;;;5157794;27;20031;-73
2021/05/22 02:34:00;;;;;;;7.30;5.60;;;13.10;64.60;;;;;;5157862;27;20030;-73
2021/05/22 02:36:27;;;;;;;9.45;5.43;;;13.20;64.50;;;;;;5157507;27;20050;-73
2021/05/22 02:38:53;;;;;;;14.70;7.18;;;13.20;64.40;;;;;;5158056;27;20026;-73
2021/05/22 02:41:21;;;;;;;31.75;25.55;;;13.30;64.60;;;;;;5157956;27;20031;-73
2021/05/22 02:43:53;;;;;;;91.95;69.15;;;13.30;64.90;;;;;;5158023;27;20528;-73
2021/05/22 02:46:21;;;;;;;72.10;49.88;;;13.40;65.00;;;;;;5157313;27;20074;-73
2021/05/22 02:48:49;;;;;;;59.25;41.92;;;13.40;65.00;;;;;;5157437;27;20027;-73
2021/05/22 02:51:17;;;;;;;28.38;19.80;;;13.50;65.10;;;;;;5156755;27;20043;-73
2021/05/22 02:53:45;;;;;;;22.52;14.43;;;13.50;65.30;;;;;;5157045;27;20027;-73
2021/05/22 02:56:12;;;;;;;27.85;15.02;;;13.50;65.50;;;;;;5156546;27;20487;-73
2021/05/22 02:58:40;;;;;;;36.67;25.88;;;13.50;65.80;;;;;;5138911;27;20022;-73
2021/05/22 03:01:06;;;;;;;23.50;16.75;;;13.50;65.80;;;;;;5156701;27;20030;-73
2021/05/22 03:03:33;;;;;;;19.98;15.02;;;13.60;65.80;;;;;;5156939;27;20027;-73
2021/05/22 03:06:00;;;;;;;24.75;15.77;;;13.60;65.80;;;;;;5157296;27;20065;-73
2021/05/22 03:08:27;;;;;;;21.33;15.45;;;13.60;66.60;;;;;;5156916;27;20022;-73
2021/05/22 03:10:57;;;;;;;22.60;15.43;;;13.60;66.00;;;;;;5156721;27;20384;-73
2021/05/22 03:13:23;;;;;;;21.73;13.93;;;13.70;66.20;;;;;;5157040;27;20022;-73
2021/05/22 03:15:49;;;;;;;21.45;14.45;;;13.80;66.10;;;;;;5156420;27;20033;-72
2021/05/22 03:18:15;;;;;;;24.00;13.85;;;13.80;66.10;;;;;;5156634;27;20083;-72
2021/05/22 03:20:41;;;;;;;18.65;12.73;;;13.80;66.10;;;;;;5156566;27;20064;-73
2021/05/22 03:23:07;;;;;;;17.10;12.40;;;13.90;65.80;;;;;;5156242;27;20483;-73
2021/05/22 03:25:33;;;;;;;22.35;13.98;;;13.90;65.60;;;;;;5156504;27;20062;-72
2021/05/22 03:27:59;;;;;;;19.83;13.85;;;13.90;65.40;;;;;;5138124;27;20041;-74
2021/05/22 03:30:25;;;;;;;20.30;14.10;;;14.00;65.50;;;;;;5156598;27;20031;-74
2021/05/22 03:32:51;;;;;;;24.27;15.50;;;14.10;65.50;;;;;;5156698;27;20031;-71
2021/05/22 03:35:17;;;;;;;25.23;14.52;;;14.10;65.60;;;;;;5156407;27;20106;-74
2021/05/22 03:37:43;;;;;;;21.42;14.70;;;14.10;66.30;;;;;;5156248;27;20472;-74
2021/05/22 03:40:09;;;;;;;20.58;13.40;;;14.20;65.70;;;;;;5155975;27;20515;-74
2021/05/22 03:42:34;;;;;;;21.10;14.18;;;14.30;65.60;;;;;;5156357;27;20049;-73
2021/05/22 03:45:00;;;;;;;22.50;14.10;;;14.30;65.50;;;;;;5156702;27;20026;-73
2021/05/22 03:47:26;;;;;;;19.92;13.40;;;14.40;65.60;;;;;;5156755;27;20022;-74
2021/05/22 03:49:52;;;;;;;21.65;13.90;;;14.40;65.70;;;;;;5156351;27;20033;-73
2021/05/22 03:52:17;;;;;;;26.77;14.93;;;14.50;65.50;;;;;;5155976;27;20173;-73
2021/05/22 03:54:45;;;;;;;29.55;17.50;;;14.50;65.40;;;;;;5155615;27;20023;-73
2021/05/22 03:57:11;;;;;;;32.25;18.40;;;14.60;65.40;;;;;;5156144;27;20023;-73
2021/05/22 03:59:36;;;;;;;36.00;21.08;;;14.70;65.40;;;;;;5155471;27;20027;-73
2021/05/22 04:02:02;;;;;;;37.53;21.65;;;14.70;65.20;;;;;;5155826;27;20022;-74
2021/05/22 04:04:28;;;;;;;43.00;24.63;;;14.80;65.10;;;;;;5155801;27;20417;-73
2021/05/22 04:06:53;;;;;;;46.08;25.00;;;14.90;65.00;;;;;;5155933;27;20057;-72
2021/05/22 04:09:19;;;;;;;45.05;23.17;;;15.00;64.90;;;;;;5155491;27;20023;-72
2021/05/22 04:11:45;;;;;;;35.13;19.60;;;15.00;64.80;;;;;;5155867;27;20124;-73
2021/05/22 04:14:10;;;;;;;32.25;16.92;;;15.10;64.70;;;;;;5155767;27;20027;-73
2021/05/22 04:16:36;;;;;;;26.67;16.02;;;15.20;64.60;;;;;;5155302;27;20463;-73
2021/05/22 04:19:03;;;;;;;17.02;10.75;;;15.30;64.50;;;;;;5155577;27;20105;-73
2021/05/22 04:21:29;;;;;;;14.57;9.35;;;15.40;64.30;;;;;;5155125;27;20487;-74
2021/05/22 04:23:55;;;;;;;11.57;8.80;;;15.40;64.20;;;;;;5155747;27;20384;-75
2021/05/22 04:26:20;;;;;;;13.75;9.68;;;15.50;63.70;;;;;;5155306;27;20056;-73
2021/05/22 04:28:46;;;;;;;16.13;9.27;;;15.60;63.70;;;;;;5155373;27;20022;-74
2021/05/22 04:31:12;;;;;;;12.82;9.27;;;15.70;63.90;;;;;;5156088;27;20030;-74
2021/05/22 04:33:38;;;;;;;15.73;9.50;;;15.80;63.90;;;;;;5155371;27;20026;-74
2021/05/22 04:36:04;;;;;;;11.30;8.40;;;15.90;63.80;;;;;;5155671;27;20052;-74
2021/05/22 04:38:29;;;;;;;11.60;8.65;;;16.00;63.70;;;;;;5155213;27;20026;-74
2021/05/22 04:40:55;;;;;;;15.65;8.40;;;16.20;63.50;;;;;;5155286;27;20075;-74
2021/05/22 04:43:21;;;;;;;14.13;8.73;;;16.20;63.80;;;;;;5155859;27;20023;-73
2021/05/22 04:45:47;;;;;;;11.95;8.00;;;16.40;62.90;;;;;;5155275;27;20022;-76
2021/05/22 04:48:12;;;;;;;14.13;9.45;;;16.50;62.40;;;;;;5155185;27;20034;-76
2021/05/22 04:50:39;;;;;;;16.23;9.13;;;16.60;62.10;;;;;;5155102;27;20071;-73
2021/05/22 04:53:04;;;;;;;14.43;9.50;;;16.70;61.90;;;;;;5155603;27;20084;-73
2021/05/22 04:55:30;;;;;;;16.05;9.93;;;16.80;61.50;;;;;;5155068;27;20026;-73
2021/05/22 04:57:56;;;;;;;16.27;10.77;;;16.90;61.20;;;;;;5155603;27;20023;-71
2021/05/22 05:00:22;;;;;;;18.08;10.80;;;17.00;61.00;;;;;;5155420;27;20106;-73
2021/05/22 05:02:48;;;;;;;16.10;10.00;;;17.10;60.80;;;;;;5154774;27;20027;-73
2021/05/22 05:05:14;;;;;;;28.42;14.82;;;17.20;60.60;;;;;;5155156;27;20388;-73
2021/05/22 05:07:41;;;;;;;24.23;15.13;;;17.30;60.40;;;;;;5155373;27;20023;-74
2021/05/22 05:10:09;;;;;;;31.85;16.33;;;17.40;60.10;;;;;;5155223;27;20023;-74
2021/05/22 05:12:35;;;;;;;26.10;11.98;;;17.50;59.90;;;;;;5155211;27;20030;-75
2021/05/22 05:15:01;;;;;;;23.85;13.20;;;17.50;59.80;;;;;;5136254;27;20321;-73
2021/05/22 05:17:26;;;;;;;22.73;12.65;;;17.70;59.60;;;;;;5154651;27;20100;-73
2021/05/22 05:19:52;;;;;;;13.98;10.30;;;17.80;59.30;;;;;;5157054;27;20022;-74
2021/05/22 05:22:17;;;;;;;17.58;10.52;;;17.80;58.80;;;;;;5158347;27;20027;-74
2021/05/22 05:24:43;;;;;;;16.33;8.75;;;18.00;58.50;;;;;;5159260;27;20033;-74
2021/05/22 05:27:11;;;;;;;22.65;9.32;;;18.00;58.00;;;;;;5158489;27;20483;-78
2021/05/22 05:29:39;;;;;;;28.45;8.63;;;18.10;57.80;;;;;;5158218;27;20026;-73
2021/05/22 05:32:08;;;;;;;14.35;6.82;;;18.20;57.60;;;;;;5140416;27;20031;-73
2021/05/22 05:34:34;;;;;;;12.20;6.57;;;18.30;57.00;;;;;;5158566;27;20034;-74
2021/05/22 05:36:59;;;;;;;10.45;6.68;;;18.40;56.70;;;;;;5140165;27;20027;-73
2021/05/22 05:39:25;;;;;;;9.90;6.43;;;18.50;56.60;;;;;;5158394;27;20468;-73
2021/05/22 05:41:51;;;;;;;9.52;5.68;;;18.50;56.30;;;;;;5158478;27;20074;-73
2021/05/22 05:44:16;;;;;;;7.85;5.13;;;18.60;55.90;;;;;;5158439;27;20407;-73
2021/05/22 05:46:42;;;;;;;6.70;4.03;;;18.70;55.50;;;;;;5158511;27;20023;-74
2021/05/22 05:49:08;;;;;;;6.95;4.68;;;18.80;55.00;;;;;;5158430;27;20057;-73
2021/05/22 05:51:35;;;;;;;13.73;5.53;;;18.90;54.80;;;;;;5158752;27;20126;-73
2021/05/22 05:54:00;;;;;;;8.48;4.78;;;19.00;54.60;;;;;;5157898;27;20037;-73
2021/05/22 05:56:26;;;;;;;9.32;3.53;;;19.10;54.30;;;;;;5158479;27;20106;-74
2021/05/22 05:58:52;;;;;;;8.38;4.32;;;19.20;53.50;;;;;;5157906;27;20028;-74
2021/05/22 06:01:18;;;;;;;10.05;5.07;;;19.30;53.30;;;;;;5158305;27;20023;-73
2021/05/22 06:03:43;;;;;;;12.38;4.70;;;19.30;53.10;;;;;;5158083;27;20049;-74
2021/05/22 06:06:09;;;;;;;16.45;4.78;;;19.40;53.10;;;;;;5158039;27;20023;-73
2021/05/22 06:08:35;;;;;;;11.70;5.80;;;19.40;52.80;;;;;;5157818;27;20019;-73
2021/05/22 06:11:01;;;;;;;14.40;5.18;;;19.50;52.40;;;;;;5157919;27;20586;-74
2021/05/22 06:13:32;;;;;;;11.00;5.93;;;19.60;52.10;;;;;;5157702;27;20031;-73
2021/05/22 06:18:35;;;;;;;11.23;6.60;;;19.80;51.50;;;;;;5158293;27;20444;-74
2021/05/22 06:21:02;;;;;;;18.98;7.93;;;19.90;50.70;;;;;;5157669;27;20099;-74
2021/05/22 06:23:29;;;;;;;24.48;9.65;;;20.00;51.40;;;;;;5157942;27;20023;-74
2021/05/22 06:25:55;;;;;;;30.52;9.77;;;20.00;52.00;;;;;;5157648;27;20026;-74
2021/05/22 06:28:21;;;;;;;30.15;8.50;;;20.10;52.40;;;;;;5157541;27;20027;-74
2021/05/22 06:30:47;;;;;;;30.10;14.57;;;20.30;53.00;;;;;;5156283;27;20034;-74
2021/05/22 06:33:13;;;;;;;35.05;13.80;;;20.30;51.60;;;;;;5138606;27;20031;-74
2021/05/22 06:35:39;;;;;;;46.15;19.58;;;20.40;50.20;;;;;;5157361;27;20095;-74
2021/05/22 06:38:05;;;;;;;38.33;17.48;;;20.50;49.90;;;;;;5157113;27;20019;-74
2021/05/22 06:40:30;;;;;;;29.73;14.30;;;20.50;49.10;;;;;;5157172;27;20026;-73
2021/05/22 06:42:56;;;;;;;27.58;13.15;;;20.60;48.40;;;;;;5157953;27;20452;-73
2021/05/22 06:45:25;;;;;;;13.73;8.10;;;20.60;48.00;;;;;;5157628;27;20027;-73
2021/05/22 06:47:51;;;;;;;23.33;10.63;;;20.70;47.30;;;;;;5155859;27;20022;-73
2021/05/22 06:50:17;;;;;;;17.85;9.25;;;20.70;46.60;;;;;;5156763;27;20036;-74
2021/05/22 06:52:42;;;;;;;28.88;12.57;;;20.80;46.30;;;;;;5157122;27;20105;-74
2021/05/22 06:55:08;;;;;;;14.60;6.07;;;20.80;46.00;;;;;;5156700;27;20111;-75
2021/05/22 06:57:34;;;;;;;19.70;6.47;;;20.90;45.50;;;;;;5156999;27;20478;-73
2021/05/22 07:00:01;;;;;;;26.00;11.27;;;21.00;45.00;;;;;;5156780;27;20027;-73
2021/05/22 07:02:26;;;;;;;31.10;11.95;;;21.10;44.60;;;;;;5157054;27;20410;-73
2021/05/22 07:04:52;;;;;;;31.30;12.55;;;21.20;44.40;;;;;;5156840;27;20022;-74
2021/05/22 07:07:18;;;;;;;26.83;12.25;;;21.30;44.50;;;;;;5156803;27;20030;-76
2021/05/22 07:09:44;;;;;;;32.25;12.75;;;21.40;44.20;;;;;;5156719;27;20031;-73
2021/05/22 07:12:10;;;;;;;34.60;12.77;;;21.50;43.90;;;;;;5156088;27;20041;-74
2021/05/22 07:14:36;;;;;;;39.78;15.63;;;21.60;44.00;;;;;;5156690;27;20037;-75
2021/05/22 07:17:02;;;;;;;30.85;12.10;;;21.70;43.70;;;;;;5156668;27;20046;-73
2021/05/22 07:19:28;;;;;;;56.88;12.77;;;21.80;43.90;;;;;;5138107;27;20026;-72
2021/05/22 07:21:55;;;;;;;36.83;13.88;;;21.80;43.20;;;;;;5156118;27;20432;-74
2021/05/22 07:24:21;;;;;;;29.27;11.55;;;22.00;43.00;;;;;;5137928;27;20387;-74
2021/05/22 07:26:48;;;;;;;17.98;6.18;;;22.00;42.70;;;;;;5157188;27;20027;-74
2021/05/22 07:29:14;;;;;;;34.35;7.13;;;22.10;42.70;;;;;;5155912;27;20027;-75
2021/05/22 07:31:41;;;;;;;13.77;5.45;;;22.20;42.70;;;;;;5156183;27;20075;-74
2021/05/22 07:34:10;;;;;;;24.55;5.03;;;22.20;42.40;;;;;;5156235;27;20031;-74
2021/05/22 07:36:40;;;;;;;17.95;5.43;;;22.30;42.30;;;;;;5156513;27;20080;-73
2021/05/22 07:39:11;;;;;;;15.70;3.30;;;22.40;42.10;;;;;;5156765;27;20023;-74
2021/05/22 07:41:37;;;;;;;4.97;2.67;;;22.50;40.40;;;;;;5137413;27;20033;-75
2021/05/22 07:44:04;;;;;;;37.63;6.47;;;22.60;40.20;;;;;;5156178;27;20030;-73
2021/05/22 07:46:29;;;;;;;24.38;3.97;;;22.60;40.20;;;;;;5156273;27;20027;-75
2021/05/22 07:48:55;;;;;;;13.10;2.83;;;22.50;40.20;;;;;;5154770;27;20027;-77
2021/05/22 07:51:21;;;;;;;14.90;2.75;;;22.60;40.00;;;;;;5155338;27;20049;-74
2021/05/22 07:53:47;;;;;;;11.10;2.42;;;22.60;39.40;;;;;;5155841;27;20026;-74
2021/05/22 07:56:13;;;;;;;7.78;2.30;;;22.60;39.50;;;;;;5156132;27;20022;-75
2021/05/22 07:58:39;;;;;;;14.02;2.70;;;22.60;38.20;;;;;;5155712;27;20380;-75
2021/05/22 08:01:05;;;;;;;16.75;3.22;;;22.70;38.20;;;;;;5156267;27;20109;-76
2021/05/22 08:03:30;;;;;;;15.32;3.20;;;22.70;37.90;;;;;;5155823;27;20030;-75
2021/05/22 08:05:56;;;;;;;8.52;2.05;;;22.80;37.50;;;;;;5156229;27;20030;-77
2021/05/22 08:08:22;;;;;;;14.40;2.15;;;22.80;37.30;;;;;;5155393;27;20050;-76
2021/05/22 08:10:48;;;;;;;17.48;2.75;;;22.90;37.10;;;;;;5155257;27;20031;-75
2021/05/22 08:13:13;;;;;;;58.53;7.35;;;23.00;37.10;;;;;;5137156;27;20110;-75
2021/05/22 08:15:40;;;;;;;21.67;3.35;;;23.10;37.20;;;;;;5155683;27;20019;-75
2021/05/22 08:18:06;;;;;;;25.92;3.95;;;23.30;37.20;;;;;;5154405;27;20440;-74
2021/05/22 08:20:32;;;;;;;14.82;2.38;;;23.40;36.60;;;;;;5155085;27;20027;-74
2021/05/22 08:22:58;;;;;;;4.88;1.58;;;23.50;36.50;;;;;;5155058;27;20026;-74
2021/05/22 08:25:24;;;;;;;4.57;1.83;;;23.70;36.20;;;;;;5137105;27;20110;-76
2021/05/22 08:27:52;;;;;;;3.05;1.63;;;23.80;36.10;;;;;;5154058;27;20456;-73
2021/05/22 08:30:19;;;;;;;10.90;1.65;;;24.00;36.10;;;;;;5154898;27;20037;-74
2021/05/22 08:32:45;;;;;;;2.10;1.30;;;24.30;35.90;;;;;;5154922;27;20026;-75
2021/05/22 08:35:11;;;;;;;11.38;2.28;;;24.50;35.20;;;;;;5155191;27;20099;-75
2021/05/22 08:37:37;;;;;;;22.73;3.90;;;24.70;34.70;;;;;;5155013;27;20033;-75
2021/05/22 08:40:04;;;;;;;24.67;3.08;;;24.90;34.50;;;;;;5155161;27;20023;-74
2021/05/22 08:42:31;;;;;;;13.48;3.22;;;25.10;34.20;;;;;;5155165;27;20091;-73
2021/05/22 08:45:08;;;;;;;14.02;2.95;;;25.40;33.70;;;;;;5155742;27;20018;-75
2021/05/22 08:47:35;;;;;;;8.45;1.73;;;25.70;33.30;;;;;;5155322;27;20051;-76
2021/05/22 08:50:03;;;;;;;11.68;2.13;;;26.00;33.10;;;;;;5154776;27;20383;-76
2021/05/22 08:52:29;;;;;;;10.18;1.48;;;26.30;32.80;;;;;;5154809;27;20117;-75
2021/05/22 08:54:55;;;;;;;6.18;1.90;;;26.60;32.40;;;;;;5157770;27;20453;-76
2021/05/22 08:57:21;;;;;;;1.13;0.80;;;27.00;32.10;;;;;;5159308;27;20468;-74
2021/05/22 08:59:48;;;;;;;4.15;1.35;;;27.30;31.50;;;;;;5159169;27;20030;-74
2021/05/22 09:02:20;;;;;;;1.75;1.30;;;27.60;31.20;;;;;;5140624;27;20083;-74
2021/05/22 09:05:21;;;;;;;2.88;1.40;;;27.90;31.00;;;;;;5159232;27;20027;-75
2021/05/22 09:07:53;;;;;;;3.20;1.30;;;28.10;31.00;;;;;;5148032;27;20062;-75
2021/05/22 09:10:32;;;;;;;3.38;1.23;;;28.50;30.80;;;;;;5159207;27;20027;-76
2021/05/22 09:13:04;;;;;;;13.55;2.90;;;29.00;30.70;;;;;;5158662;27;20069;-76
2021/05/22 09:15:32;;;;;;;6.47;2.90;;;29.40;30.40;;;;;;5158806;27;20535;-75
2021/05/22 09:18:05;;;;;;;6.57;2.80;;;29.70;30.00;;;;;;5159297;27;20026;-76
2021/05/22 09:20:38;;;;;;;1.48;1.30;;;30.10;29.90;;;;;;5158784;27;20023;-74
2021/05/22 09:23:16;;;;;;;3.90;1.60;;;30.50;30.00;;;;;;5158684;27;20106;-74
2021/05/22 09:25:50;;;;;;;5.20;3.10;;;31.00;30.20;;;;;;5140852;27;20122;-75
2021/05/22 09:28:19;;;;;;;5.13;1.88;;;31.70;30.80;;;;;;5158502;27;20026;-74
2021/05/22 09:30:48;;;;;;;8.25;2.05;;;32.40;30.00;;;;;;5158941;27;20034;-75
2021/05/22 09:33:18;;;;;;;2.85;1.75;;;33.20;29.80;;;;;;5158714;27;20027;-75
2021/05/22 09:36:02;;;;;;;2.20;1.35;;;33.90;29.40;;;;;;5140049;27;20027;-74
2021/05/22 09:38:52;;;;;;;2.72;1.75;;;34.50;29.20;;;;;;5140012;27;20114;-75
2021/05/22 09:41:27;;;;;;;3.97;1.80;;;35.50;29.10;;;;;;5158553;27;20037;-76
2021/05/22 09:44:16;;;;;;;9.30;2.25;;;36.20;28.60;;;;;;5158978;27;20034;-74
2021/05/22 09:46:44;;;;;;;10.65;3.05;;;37.00;28.20;;;;;;5158435;27;20022;-74
2021/05/22 09:49:30;;;;;;;32.20;3.90;;;37.30;28.00;;;;;;5158376;27;20027;-75
2021/05/22 09:52:04;;;;;;;3.60;1.70;;;37.70;27.90;;;;;;5157970;27;20033;-75
2021/05/22 09:54:40;;;;;;;5.93;2.83;;;38.20;27.70;;;;;;5158149;27;20105;-75
2021/05/22 09:57:07;;;;;;;5.32;2.63;;;38.70;27.60;;;;;;5157874;27;20023;-74
2021/05/22 09:59:33;;;;;;;7.20;3.22;;;39.10;28.00;;;;;;5158109;27;20023;-76
2021/05/22 10:01:59;;;;;;;14.35;3.60;;;39.40;27.20;;;;;;5157733;27;20038;-75
2021/05/22 10:04:25;;;;;;;7.72;3.10;;;39.50;27.10;;;;;;5157537;27;20039;-75
2021/05/22 10:06:52;;;;;;;12.25;3.75;;;39.60;27.00;;;;;;5156780;27;20069;-75
2021/05/22 10:09:19;;;;;;;10.60;3.60;;;39.70;26.80;;;;;;5139862;27;20464;-74
2021/05/22 10:12:02;;;;;;;17.55;4.38;;;39.90;26.60;;;;;;5158046;27;20062;-74
2021/05/22 10:14:34;;;;;;;26.55;4.28;;;40.00;26.20;;;;;;5157796;27;20110;-74
2021/05/22 10:17:02;;;;;;;26.57;3.73;;;39.90;26.20;;;;;;5157586;27;20019;-74
2021/05/22 10:19:30;;;;;;;14.23;2.92;;;39.70;26.30;;;;;;5138873;27;20019;-75
2021/05/22 10:21:56;;;;;;;8.80;2.03;;;39.70;26.40;;;;;;5157405;27;20029;-74
2021/05/22 10:24:23;;;;;;;13.65;3.05;;;40.00;26.50;;;;;;5157557;27;20425;-76
2021/05/22 10:26:50;;;;;;;4.38;2.40;;;40.00;26.40;;;;;;5157263;27;20090;-75
2021/05/22 10:29:16;;;;;;;14.95;2.90;;;39.90;26.30;;;;;;5157203;27;20380;-75
2021/05/22 10:31:42;;;;;;;14.40;3.30;;;39.90;26.30;;;;;;5157654;27;20034;-75
2021/05/22 10:34:12;;;;;;;6.72;2.20;;;39.80;26.20;;;;;;5157320;27;20075;-75
2021/05/22 10:36:59;;;;;;;47.78;6.18;;;39.90;26.10;;;;;;5157459;27;20026;-75
2021/05/22 10:39:49;;;;;;;15.50;5.20;;;40.10;26.20;;;;;;5138631;27;20057;-75
2021/05/22 10:42:18;;;;;;;55.00;7.70;;;40.50;26.20;;;;;;5157237;27;20027;-75
2021/05/22 10:44:43;;;;;;;7.85;5.00;;;41.00;26.20;;;;;;5156983;27;20034;-76
2021/05/22 10:47:12;;;;;;;45.60;6.95;;;41.20;25.90;;;;;;5138742;27;20023;-76
2021/05/22 10:49:51;;;;;;;20.67;3.30;;;41.20;25.70;;;;;;5157105;27;20039;-74
2021/05/22 10:52:23;;;;;;;6.75;2.30;;;41.10;25.70;;;;;;5157327;27;20026;-75
2021/05/22 10:55:08;;;;;;;4.83;2.30;;;41.20;25.80;;;;;;5157296;27;20019;-75
2021/05/22 10:57:46;;;;;;;10.55;2.92;;;41.50;25.50;;;;;;5157146;27;20113;-74
2021/05/22 11:00:21;;;;;;;5.28;2.65;;;41.80;25.20;;;;;;5157341;27;20048;-75
2021/05/22 11:02:55;;;;;;;20.00;4.53;;;42.20;25.00;;;;;;5139070;27;20067;-75
2021/05/22 11:08:04;;;;;;;5.07;2.03;;;42.80;24.70;;;;;;5157329;27;20023;-75
2021/05/22 11:10:40;;;;;;;13.30;2.83;;;43.00;24.80;;;;;;5156833;27;20026;-75
2021/05/22 11:13:09;;;;;;;17.38;3.25;;;43.00;25.40;;;;;;5157436;27;20398;-75
2021/05/22 11:15:56;;;;;;;6.90;2.05;;;43.00;24.80;;;;;;5157003;27;20033;-76
2021/05/22 11:18:25;;;;;;;13.75;3.58;;;43.00;24.70;;;;;;5156247;27;20022;-75
2021/05/22 11:21:15;;;;;;;5.40;2.45;;;43.20;24.70;;;;;;5156498;27;20037;-75
2021/05/22 11:24:05;;;;;;;9.82;2.95;;;43.20;24.50;;;;;;5156926;27;20372;-74
2021/05/22 11:26:55;;;;;;;13.40;3.10;;;43.40;24.50;;;;;;5156217;27;20018;-75
2021/05/22 11:29:22;;;;;;;34.47;5.43;;;43.40;24.50;;;;;;5156258;27;20445;-79
2021/05/22 11:31:48;;;;;;;10.25;2.78;;;43.50;24.70;;;;;;5156539;27;20362;-76
2021/05/22 11:34:23;;;;;;;25.33;4.82;;;43.50;24.70;;;;;;5156723;27;20030;-76
2021/05/22 11:37:15;;;;;;;6.40;2.78;;;43.70;24.50;;;;;;5155950;27;20029;-75
2021/05/22 11:39:41;;;;;;;11.57;2.65;;;43.80;24.50;;;;;;5131949;27;20035;-74
2021/05/22 11:42:30;;;;;;;6.45;1.88;;;43.90;24.80;;;;;;5156343;27;20061;-75
2021/05/22 11:44:57;;;;;;;6.43;2.15;;;44.10;24.60;;;;;;5156194;27;20023;-75
2021/05/22 11:47:28;;;;;;;6.10;2.28;;;44.20;24.60;;;;;;5155952;27;20023;-74
2021/05/22 11:49:54;;;;;;;27.17;3.75;;;44.30;24.50;;;;;;5156113;27;20036;-75
2021/05/22 11:52:30;;;;;;;12.32;3.35;;;44.20;24.40;;;;;;5156026;27;20113;-75
2021/05/22 11:54:57;;;;;;;30.60;5.05;;;44.20;24.30;;;;;;5156010;27;20113;-74
2021/05/22 11:57:24;;;;;;;41.63;6.53;;;44.20;24.30;;;;;;5156129;27;20030;-75
2021/05/22 11:59:50;;;;;;;9.52;2.53;;;44.20;24.40;;;;;;5156163;27;20372;-74
2021/05/22 12:02:37;;;;;;;20.52;3.33;;;44.00;24.40;;;;;;5155735;27;20034;-74
2021/05/22 12:05:08;;;;;;;10.63;1.92;;;43.70;24.90;;;;;;5155757;27;20031;-75
2021/05/22 12:07:50;;;;;;;14.27;2.97;;;43.40;24.30;;;;;;5156006;27;20049;-75
2021/05/22 12:10:17;;;;;;;28.67;4.78;;;42.20;24.30;;;;;;5155647;27;20093;-75
2021/05/22 12:12:45;;;;;;;33.10;4.55;;;40.70;24.40;;;;;;5137645;27;20026;-75
2021/05/22 12:15:24;;;;;;;18.85;3.53;;;39.10;24.70;;;;;;5137014;27;20031;-74
2021/05/22 12:17:51;;;;;;;82.00;11.48;;;37.90;25.10;;;;;;5155460;27;20031;-76
2021/05/22 12:20:18;;;;;;;14.40;1.92;;;38.10;25.60;;;;;;5155782;27;20019;-76
2021/05/22 12:22:44;;;;;;;6.85;1.90;;;38.80;25.80;;;;;;5155306;27;20113;-76
2021/05/22 12:25:10;;;;;;;14.75;2.70;;;39.60;25.60;;;;;;5155123;27;20061;-75
2021/05/22 12:27:37;;;;;;;4.28;1.50;;;40.40;25.40;;;;;;5155131;27;20409;-76
2021/05/22 12:30:05;;;;;;;9.35;2.00;;;41.10;25.30;;;;;;5154169;27;20464;-75
2021/05/22 12:32:31;;;;;;;14.30;3.53;;;41.60;25.20;;;;;;5155029;27;20027;-75
2021/05/22 12:34:58;;;;;;;25.58;3.75;;;42.00;25.20;;;;;;5155511;27;20015;-75
2021/05/22 12:37:24;;;;;;;7.10;2.42;;;42.30;25.10;;;;;;5155419;27;20058;-75
2021/05/22 12:39:56;;;;;;;39.47;4.70;;;42.70;24.90;;;;;;5155485;27;20033;-75
2021/05/22 12:42:27;;;;;;;5.45;2.05;;;43.00;24.60;;;;;;5154578;27;20465;-76
2021/05/22 12:44:58;;;;;;;4.65;2.38;;;43.20;24.30;;;;;;5155062;27;20066;-75
2021/05/22 12:47:36;;;;;;;8.13;2.10;;;43.50;24.20;;;;;;5155109;27;20110;-75
2021/05/22 12:50:06;;;;;;;7.82;2.25;;;43.50;24.10;;;;;;5155729;27;20027;-75